Time;durP1;ratioP1;P1;durP2;ratioP2;P2;SDS_P1;SDS_P2;PMS_P1;PMS_P2;Temp;Humidity;BMP_temperature;BMP_pressure;BME280_temperature;BME280_humidity;BME280_pressure;Samples;Min_cycle;Max_cycle;Signal;HPM_P1;HPM_P2
2022/02/16 00:01:34;;;;;;;0.30;0.10;;;;;;;21.15;56.38;99853.16;5042506;28;20058;-68
2022/02/16 00:03:59;;;;;;;1.65;0.20;;;;;;;21.14;57.35;99846.84;5055873;28;20032;-66
2022/02/16 00:06:24;;;;;;;0.65;0.20;;;;;;;21.18;58.61;99848.13;5056123;28;20017;-67
2022/02/16 00:08:49;;;;;;;1.02;0.30;;;;;;;21.22;59.14;99848.53;5054381;28;20021;-68
2022/02/16 00:11:15;;;;;;;0.85;0.20;;;;;;;21.22;60.01;99854.00;5051836;28;20032;-66
2022/02/16 00:13:40;;;;;;;0.40;0.22;;;;;;;21.23;60.20;99853.78;5035717;28;20494;-67
2022/02/16 00:16:08;;;;;;;0.75;0.20;;;;;;;21.26;61.04;99850.63;5036009;28;20048;-66
2022/02/16 00:18:36;;;;;;;0.35;0.20;;;;;;;21.29;61.46;99844.75;5035824;28;20384;-67
2022/02/16 00:21:01;;;;;;;0.20;0.13;;;;;;;21.29;61.74;99833.81;5037447;28;20032;-67
2022/02/16 00:23:27;;;;;;;0.95;0.20;;;;;;;21.31;62.24;99848.09;5055505;28;20021;-66
2022/02/16 00:25:52;;;;;;;0.75;0.15;;;;;;;21.31;62.38;99844.53;5055418;28;20499;-68
2022/02/16 00:28:17;;;;;;;0.40;0.20;;;;;;;21.34;62.39;99840.53;5055726;28;20082;-66
2022/02/16 00:30:44;;;;;;;0.63;0.08;;;;;;;21.36;63.01;99835.69;5055356;28;20057;-66
2022/02/16 00:33:09;;;;;;;0.20;0.10;;;;;;;21.39;62.22;99832.53;5036226;28;20037;-67
2022/02/16 00:35:34;;;;;;;0.55;0.10;;;;;;;21.39;62.37;99838.00;5035445;28;20108;-66
2022/02/16 00:38:00;;;;;;;0.57;0.10;;;;;;;21.43;62.72;99828.28;5035452;28;20032;-67
2022/02/16 00:40:25;;;;;;;0.10;0.00;;;;;;;21.46;62.23;99831.44;5035563;28;20052;-66
2022/02/16 00:42:50;;;;;;;0.85;0.20;;;;;;;21.48;62.17;99817.53;5051308;28;20044;-66
2022/02/16 00:45:16;;;;;;;0.80;0.22;;;;;;;21.52;62.03;99816.06;5055455;28;20536;-68
2022/02/16 00:47:42;;;;;;;0.77;0.40;;;;;;;21.55;61.64;99815.63;5054958;28;20032;-66
2022/02/16 00:50:07;;;;;;;0.45;0.10;;;;;;;21.56;61.23;99817.31;5054740;28;20028;-68
2022/02/16 00:52:33;;;;;;;0.20;0.15;;;;;;;21.60;60.69;99813.91;5044310;23;20025;-65
2022/02/16 00:54:58;;;;;;;0.77;0.10;;;;;;;21.61;60.86;99817.50;5052774;28;20043;-66
2022/02/16 00:57:23;;;;;;;0.05;0.03;;;;;;;21.60;61.41;99808.44;5055183;28;20021;-68
2022/02/16 00:59:48;;;;;;;1.02;0.20;;;;;;;21.61;61.07;99812.03;5054751;28;20056;-66
2022/02/16 01:02:14;;;;;;;1.25;0.20;;;;;;;21.62;60.52;99805.50;5054487;28;20035;-67
2022/02/16 01:04:39;;;;;;;0.40;0.10;;;;;;;21.64;60.55;99797.91;5036937;28;20104;-66
2022/02/16 01:07:04;;;;;;;1.08;0.38;;;;;;;21.67;59.71;99802.97;5054601;28;20383;-67
2022/02/16 01:09:30;;;;;;;0.70;0.28;;;;;;;21.69;60.22;99795.38;5054876;28;20051;-68
2022/02/16 01:11:56;;;;;;;0.60;0.10;;;;;;;21.69;59.58;99787.19;5054664;28;20033;-66
2022/02/16 01:14:21;;;;;;;1.98;0.35;;;;;;;21.70;59.28;99775.19;5054876;28;20376;-67
2022/02/16 01:16:46;;;;;;;0.65;0.20;;;;;;;21.72;58.95;99773.06;5036640;28;20021;-66
2022/02/16 01:19:12;;;;;;;0.60;0.10;;;;;;;21.73;59.44;99772.00;5054341;28;20549;-66
2022/02/16 01:21:37;;;;;;;0.00;0.00;;;;;;;21.73;58.51;99766.53;5054549;28;20020;-68
2022/02/16 01:24:02;;;;;;;0.98;0.20;;;;;;;21.73;58.53;99763.78;5054550;28;20112;-66
2022/02/16 01:26:28;;;;;;;0.40;0.10;;;;;;;21.76;58.67;99770.72;5036753;28;20021;-66
2022/02/16 01:28:53;;;;;;;0.63;0.13;;;;;;;21.76;58.19;99763.34;5053901;28;20021;-68
2022/02/16 01:31:18;;;;;;;0.20;0.17;;;;;;;21.77;58.45;99770.50;5054554;28;20460;-66
2022/02/16 01:33:44;;;;;;;0.43;0.10;;;;;;;21.77;57.75;99770.50;5054136;28;20021;-67
2022/02/16 01:36:09;;;;;;;0.65;0.15;;;;;;;21.78;58.31;99761.22;5054402;28;20028;-66
2022/02/16 01:38:35;;;;;;;0.35;0.03;;;;;;;21.77;57.93;99759.56;5053975;28;20017;-66
2022/02/16 01:41:01;;;;;;;0.03;0.00;;;;;;;21.79;57.55;99749.22;5054180;28;20025;-68
2022/02/16 01:43:26;;;;;;;0.40;0.20;;;;;;;21.79;57.58;99746.50;5054278;28;20016;-66
2022/02/16 01:45:52;;;;;;;0.28;0.20;;;;;;;21.78;57.03;99739.34;5053987;28;20375;-67
2022/02/16 01:48:17;;;;;;;1.00;0.10;;;;;;;21.78;56.93;99731.13;5054098;28;20021;-66
2022/02/16 01:50:42;;;;;;;0.28;0.22;;;;;;;21.78;57.16;99728.41;5053617;28;20035;-66
2022/02/16 01:53:08;;;;;;;0.20;0.10;;;;;;;21.80;57.00;99723.53;5053909;28;20041;-67
2022/02/16 01:55:33;;;;;;;0.70;0.20;;;;;;;21.82;56.96;99729.63;5053852;28;20048;-66
2022/02/16 01:58:00;;;;;;;2.00;0.52;;;;;;;21.81;56.90;99727.94;5053773;28;20104;-66
2022/02/16 02:00:26;;;;;;;0.43;0.10;;;;;;;21.81;57.02;99717.00;5053614;28;20028;-68
2022/02/16 02:02:51;;;;;;;1.40;0.20;;;;;;;21.81;56.77;99716.16;5053612;28;20052;-66
2022/02/16 02:05:16;;;;;;;0.65;0.10;;;;;;;21.81;56.94;99708.81;5070751;28;20031;-67
2022/02/16 02:07:42;;;;;;;0.73;0.40;;;;;;;21.80;56.04;99693.44;5073410;28;20032;-66
2022/02/16 02:10:08;;;;;;;1.05;0.20;;;;;;;21.81;56.64;99675.97;5068776;28;20372;-67
2022/02/16 02:12:45;;;;;;;0.98;0.20;;;;;;;21.81;56.59;99692.38;5066749;28;20039;-67
2022/02/16 02:15:11;;;;;;;0.57;0.13;;;;;;;21.82;56.13;99674.91;5073505;28;20028;-66
2022/02/16 02:17:36;;;;;;;0.68;0.20;;;;;;;21.81;56.41;99667.78;5073467;28;20045;-68
2022/02/16 02:20:02;;;;;;;1.17;0.10;;;;;;;21.83;56.06;99667.53;5061251;28;20043;-66
2022/02/16 02:22:27;;;;;;;0.20;0.10;;;;;;;21.82;56.47;99657.66;5068448;28;20069;-66
2022/02/16 02:24:52;;;;;;;0.95;0.20;;;;;;;21.81;56.02;99645.88;5060793;28;20321;-67
2022/02/16 02:27:17;;;;;;;0.20;0.00;;;;;;;21.81;56.09;99634.94;5053431;28;20021;-66
2022/02/16 02:29:43;;;;;;;0.63;0.28;;;;;;;21.83;56.04;99629.25;5054062;28;20038;-66
2022/02/16 02:32:08;;;;;;;0.38;0.10;;;;;;;21.83;56.08;99632.81;5053348;28;20039;-67
2022/02/16 02:34:34;;;;;;;0.60;0.22;;;;;;;21.84;56.48;99622.75;5053206;28;20021;-66
2022/02/16 02:36:59;;;;;;;1.55;0.08;;;;;;;21.82;56.17;99620.19;5053019;28;20456;-67
2022/02/16 02:39:24;;;;;;;0.20;0.10;;;;;;;21.82;56.00;99603.78;5065585;28;20154;-66
2022/02/16 02:41:50;;;;;;;0.70;0.30;;;;;;;21.83;55.76;99605.47;5038201;28;20467;-66
2022/02/16 02:44:15;;;;;;;0.20;0.20;;;;;;;21.82;55.94;99592.84;5064148;28;20101;-68
2022/02/16 02:46:40;;;;;;;1.33;0.50;;;;;;;21.83;56.35;99578.09;5072891;28;20058;-65
2022/02/16 02:49:05;;;;;;;0.98;0.10;;;;;;;21.82;56.27;99568.22;5062712;28;20032;-67
2022/02/16 02:51:31;;;;;;;0.35;0.10;;;;;;;21.82;55.44;99570.13;5053222;28;20038;-68
2022/02/16 02:53:56;;;;;;;0.32;0.20;;;;;;;21.84;55.48;99559.81;5052679;28;20036;-65
2022/02/16 02:56:22;;;;;;;0.52;0.10;;;;;;;21.83;55.79;99555.38;5035148;28;20032;-67
2022/02/16 02:58:48;;;;;;;0.20;0.10;;;;;;;21.83;55.62;99539.81;5059592;28;20020;-68
2022/02/16 03:01:14;;;;;;;0.30;0.20;;;;;;;21.83;55.57;99539.81;5072698;28;20422;-67
2022/02/16 03:03:39;;;;;;;0.20;0.10;;;;;;;21.82;56.08;99532.66;5072530;28;20028;-67
2022/02/16 03:06:07;;;;;;;0.25;0.05;;;;;;;21.83;55.82;99528.03;5072677;28;20024;-67
2022/02/16 03:08:32;;;;;;;0.20;0.10;;;;;;;21.83;55.84;99523.38;5067598;28;20021;-66
2022/02/16 03:10:58;;;;;;;0.52;0.15;;;;;;;21.82;55.72;99532.66;5052414;28;20090;-67
2022/02/16 03:13:24;;;;;;;0.47;0.10;;;;;;;21.82;55.52;99532.66;5052650;28;20115;-66
2022/02/16 03:15:51;;;;;;;0.50;0.20;;;;;;;21.82;55.78;99518.97;5052271;28;20029;-66
2022/02/16 03:18:20;;;;;;;1.15;0.25;;;;;;;21.84;55.34;99511.41;5054710;28;20031;-69
2022/02/16 03:20:45;;;;;;;0.35;0.10;;;;;;;21.84;55.68;99502.38;5072293;28;20065;-66
2022/02/16 03:23:11;;;;;;;0.77;0.10;;;;;;;21.85;55.85;99493.94;5064448;28;20115;-66
2022/02/16 03:25:36;;;;;;;1.27;0.20;;;;;;;21.84;55.53;99488.69;5052296;28;20039;-65
2022/02/16 03:28:01;;;;;;;0.28;0.10;;;;;;;21.83;55.74;99478.78;5052143;28;20021;-66
2022/02/16 03:30:27;;;;;;;0.82;0.30;;;;;;;21.83;56.04;99468.69;5072178;28;20028;-67
2022/02/16 03:32:52;;;;;;;0.35;0.10;;;;;;;21.85;54.90;99465.75;5072126;28;20048;-66
2022/02/16 03:35:17;;;;;;;0.13;0.00;;;;;;;21.83;55.44;99448.69;5072431;28;20020;-67
2022/02/16 03:37:43;;;;;;;1.00;0.00;;;;;;;21.84;55.50;99445.75;5054094;28;20020;-68
2022/02/16 03:40:08;;;;;;;0.77;0.00;;;;;;;21.83;55.50;99435.84;5054935;28;20438;-66
2022/02/16 03:42:34;;;;;;;0.85;0.17;;;;;;;21.85;55.95;99427.44;5052122;28;20036;-67
2022/02/16 03:44:59;;;;;;;0.40;0.10;;;;;;;21.82;55.28;99427.88;5052051;28;20029;-66
2022/02/16 03:47:24;;;;;;;0.68;0.10;;;;;;;21.84;55.87;99421.13;5052295;28;20082;-66
2022/02/16 03:49:49;;;;;;;0.25;0.05;;;;;;;21.84;55.48;99415.66;5065888;28;20036;-68
2022/02/16 03:52:15;;;;;;;0.75;0.28;;;;;;;21.83;55.47;99380.31;5072304;28;20078;-66
2022/02/16 03:54:40;;;;;;;0.20;0.10;;;;;;;21.83;55.32;99370.19;5053773;28;20052;-66
2022/02/16 03:57:05;;;;;;;0.13;0.10;;;;;;;21.83;55.43;99347.47;5052167;28;20464;-67
2022/02/16 03:59:31;;;;;;;0.60;0.10;;;;;;;21.83;55.78;99381.13;5063318;28;20043;-66
2022/02/16 04:02:01;;;;;;;0.43;0.10;;;;;;;21.85;56.20;99372.72;5071867;28;20253;-66
2022/02/16 04:04:26;;;;;;;0.20;0.10;;;;;;;21.84;55.64;99371.91;5072069;28;20032;-66
2022/02/16 04:06:51;;;;;;;0.40;0.00;;;;;;;21.85;55.15;99373.56;5071759;28;20021;-66
2022/02/16 04:09:16;;;;;;;1.00;0.25;;;;;;;21.82;55.70;99368.53;5062607;28;20108;-67
2022/02/16 04:11:42;;;;;;;1.20;0.10;;;;;;;21.82;55.50;99357.59;5051622;28;20037;-66
2022/02/16 04:14:07;;;;;;;0.47;0.20;;;;;;;21.82;55.60;99340.34;5051935;28;20062;-67
2022/02/16 04:16:32;;;;;;;0.38;0.00;;;;;;;21.83;55.56;99342.84;5051863;28;20040;-66
2022/02/16 04:18:58;;;;;;;0.65;0.00;;;;;;;21.82;55.01;99324.75;5057583;28;20024;-66
2022/02/16 04:21:23;;;;;;;0.25;0.00;;;;;;;21.82;55.47;99323.94;5072039;28;20036;-67
2022/02/16 04:23:48;;;;;;;0.38;0.10;;;;;;;21.82;54.97;99319.28;5053618;28;20082;-66
2022/02/16 04:26:13;;;;;;;0.15;0.03;;;;;;;21.83;55.37;99315.50;5071980;28;20034;-66
2022/02/16 04:28:39;;;;;;;0.08;0.03;;;;;;;21.82;55.50;99307.50;5067867;28;20526;-67
2022/02/16 04:31:05;;;;;;;2.50;0.30;;;;;;;21.81;55.29;99297.63;5051743;28;20021;-66
2022/02/16 04:33:30;;;;;;;0.80;0.10;;;;;;;21.82;55.31;99297.41;5051789;28;20029;-67
2022/02/16 04:35:55;;;;;;;0.32;0.17;;;;;;;21.82;55.23;99291.09;5051526;28;20025;-68
2022/02/16 04:38:21;;;;;;;0.60;0.28;;;;;;;21.81;55.02;99279.31;5052296;28;20028;-66
2022/02/16 04:40:46;;;;;;;0.55;0.20;;;;;;;21.82;55.46;99272.78;5071258;28;20028;-67
2022/02/16 04:43:11;;;;;;;0.38;0.10;;;;;;;21.81;55.03;99271.13;5074262;28;20112;-67
2022/02/16 04:45:37;;;;;;;0.20;0.10;;;;;;;21.81;55.11;99268.38;5057249;28;20491;-66
2022/02/16 04:48:03;;;;;;;0.68;0.20;;;;;;;21.81;54.75;99260.19;5075167;28;20379;-67
2022/02/16 04:50:28;;;;;;;0.00;0.00;;;;;;;21.83;54.60;99259.94;5056860;28;20064;-66
2022/02/16 04:52:54;;;;;;;0.85;0.22;;;;;;;21.80;55.41;99247.56;5054844;28;20471;-66
2022/02/16 04:55:21;;;;;;;0.25;0.10;;;;;;;21.81;55.04;99235.56;5055189;28;20039;-68
2022/02/16 04:57:46;;;;;;;0.00;0.00;;;;;;;21.80;54.86;99236.63;5054825;28;20479;-66
2022/02/16 05:00:13;;;;;;;0.40;0.10;;;;;;;21.80;55.22;99222.97;5070920;28;20075;-66
2022/02/16 05:02:39;;;;;;;0.40;0.05;;;;;;;22.90;53.10;99211.50;5074882;28;20625;-68
2022/02/16 05:05:06;;;;;;;0.77;0.10;;;;;;;23.25;52.67;99191.41;5074918;28;20029;-66
2022/02/16 05:07:31;;;;;;;0.60;0.10;;;;;;;23.44;51.90;99179.16;5075146;28;20352;-64
2022/02/16 05:09:57;;;;;;;0.63;0.10;;;;;;;23.59;51.66;99178.66;5060866;28;20044;-66
2022/02/16 05:12:22;;;;;;;0.80;0.13;;;;;;;23.70;51.47;99173.13;5054828;28;20468;-66
2022/02/16 05:14:47;;;;;;;0.22;0.10;;;;;;;23.79;51.14;99168.06;5054895;28;20025;-67
2022/02/16 05:17:12;;;;;;;0.65;0.10;;;;;;;23.88;51.43;99157.53;5054689;28;20027;-66
2022/02/16 05:19:38;;;;;;;1.75;0.28;;;;;;;23.95;51.60;99147.19;5064982;28;20025;-66
2022/02/16 05:22:04;;;;;;;0.88;0.10;;;;;;;24.03;52.39;99144.06;5074585;28;20379;-67
2022/02/16 05:24:29;;;;;;;0.63;0.10;;;;;;;24.07;51.70;99133.41;5074633;28;20028;-66
2022/02/16 05:26:54;;;;;;;0.20;0.13;;;;;;;24.13;51.67;99127.75;5074326;28;20032;-66
2022/02/16 05:29:20;;;;;;;0.30;0.00;;;;;;;24.17;51.47;99122.56;5066272;28;20057;-68
2022/02/16 05:31:45;;;;;;;1.67;0.20;;;;;;;24.24;51.92;99118.59;5036294;28;20028;-65
2022/02/16 05:34:10;;;;;;;0.45;0.10;;;;;;;24.29;51.78;99115.94;5054408;28;20048;-66
2022/02/16 05:36:36;;;;;;;0.30;0.30;;;;;;;24.33;52.12;99104.44;5054320;28;20017;-68
2022/02/16 05:39:03;;;;;;;0.50;0.10;;;;;;;24.38;52.35;99101.78;5059199;28;20459;-66
2022/02/16 05:41:29;;;;;;;0.65;0.13;;;;;;;24.41;52.13;99096.63;5074357;28;20021;-68
2022/02/16 05:43:55;;;;;;;1.10;0.10;;;;;;;24.46;52.29;99093.09;5055998;28;20025;-66
2022/02/16 05:46:21;;;;;;;1.85;0.40;;;;;;;24.49;52.53;99087.09;5074253;28;20020;-66
2022/02/16 05:48:46;;;;;;;0.63;0.10;;;;;;;24.50;52.34;99080.53;5070725;28;20040;-68
2022/02/16 05:51:11;;;;;;;2.95;0.45;;;;;;;24.52;52.76;99081.09;5036190;28;20021;-66
2022/02/16 05:53:37;;;;;;;0.45;0.10;;;;;;;24.53;52.49;99075.38;5052755;28;20041;-66
2022/02/16 05:56:03;;;;;;;0.70;0.30;;;;;;;24.57;52.65;99061.97;5054152;28;20522;-67
2022/02/16 05:58:28;;;;;;;0.20;0.00;;;;;;;24.59;52.61;99055.13;5053938;28;20024;-66
2022/02/16 06:00:53;;;;;;;0.15;0.10;;;;;;;24.59;52.16;99048.78;5033667;28;20033;-66
2022/02/16 06:03:19;;;;;;;0.38;0.25;;;;;;;24.62;52.59;99042.78;5016219;28;20116;-67
2022/02/16 06:05:44;;;;;;;0.38;0.10;;;;;;;24.64;52.46;99023.28;5033602;28;20040;-66
2022/02/16 06:08:09;;;;;;;0.35;0.20;;;;;;;24.65;52.89;99017.53;5033830;28;20033;-67
2022/02/16 06:10:34;;;;;;;1.33;0.20;;;;;;;24.68;52.46;99019.78;5066901;28;20024;-67
2022/02/16 06:13:00;;;;;;;0.43;0.22;;;;;;;24.70;52.83;99014.06;5053800;28;20047;-65
2022/02/16 06:15:27;;;;;;;1.55;0.17;;;;;;;24.70;52.88;99009.38;5053717;28;20489;-66
2022/02/16 06:17:52;;;;;;;0.43;0.08;;;;;;;24.73;52.47;99006.13;5053356;28;20021;-66
2022/02/16 06:20:18;;;;;;;0.93;0.10;;;;;;;24.74;52.77;98985.78;5068389;28;20112;-66
2022/02/16 06:22:43;;;;;;;1.25;0.10;;;;;;;24.77;52.86;98989.94;5073256;28;20032;-66
2022/02/16 06:25:08;;;;;;;0.52;0.10;;;;;;;24.80;52.20;98979.25;5059122;28;20082;-68
2022/02/16 06:27:34;;;;;;;0.60;0.17;;;;;;;24.80;52.52;98984.75;5052068;28;20028;-66
2022/02/16 06:30:01;;;;;;;0.35;0.10;;;;;;;24.80;52.79;98979.25;5065162;28;20037;-67
2022/02/16 06:32:26;;;;;;;0.20;0.10;;;;;;;24.84;52.61;98974.88;5073345;28;20021;-67
2022/02/16 06:34:52;;;;;;;0.35;0.10;;;;;;;24.84;52.50;98972.13;5073000;28;20252;-66
2022/02/16 06:37:17;;;;;;;0.75;0.10;;;;;;;24.85;52.62;98965.56;5073788;28;20024;-67
2022/02/16 06:39:42;;;;;;;0.70;0.15;;;;;;;24.85;52.52;98971.06;5063003;28;20517;-66
2022/02/16 06:42:07;;;;;;;0.20;0.10;;;;;;;24.87;51.77;98963.41;5053147;28;20029;-66
2022/02/16 06:44:33;;;;;;;0.30;0.10;;;;;;;24.89;52.33;98958.47;5053068;28;20404;-67
2022/02/16 06:46:58;;;;;;;0.70;0.20;;;;;;;24.93;52.80;98949.72;5053170;28;20180;-65
2022/02/16 06:49:23;;;;;;;1.10;0.10;;;;;;;24.92;51.96;98948.06;5059709;28;20382;-66
2022/02/16 06:51:50;;;;;;;0.10;0.00;;;;;;;24.94;52.22;98934.88;5072603;28;20032;-67
2022/02/16 06:54:15;;;;;;;0.80;0.10;;;;;;;24.96;52.45;98932.69;5072684;28;20135;-66
2022/02/16 06:56:40;;;;;;;0.70;0.10;;;;;;;24.95;52.54;98917.28;5072945;28;20072;-66
2022/02/16 06:59:05;;;;;;;0.55;0.13;;;;;;;24.98;51.91;98911.25;5068191;28;20464;-66
2022/02/16 07:01:31;;;;;;;0.45;0.10;;;;;;;24.98;52.00;98903.03;5052765;28;20055;-66
2022/02/16 07:03:56;;;;;;;0.30;0.10;;;;;;;24.98;51.95;98905.75;5052573;28;20490;-67
2022/02/16 07:06:21;;;;;;;1.98;0.30;;;;;;;25.01;51.98;98906.09;5052542;28;20056;-67
2022/02/16 07:08:47;;;;;;;0.38;0.00;;;;;;;25.02;52.17;98904.19;5053533;28;20024;-66
2022/02/16 07:11:12;;;;;;;0.43;0.10;;;;;;;25.02;52.34;98895.94;5072588;28;20036;-67
2022/02/16 07:13:37;;;;;;;1.80;0.28;;;;;;;25.02;51.54;98899.50;5072405;28;20055;-65
2022/02/16 07:16:03;;;;;;;1.10;0.20;;;;;;;25.05;51.83;98898.19;5072550;28;20025;-66
2022/02/16 07:18:30;;;;;;;0.38;0.10;;;;;;;25.05;52.06;98892.69;5072554;28;20020;-68
2022/02/16 07:20:56;;;;;;;1.08;0.05;;;;;;;25.06;52.53;98891.59;5070597;28;20553;-66
2022/02/16 07:23:21;;;;;;;0.90;0.20;;;;;;;25.07;52.29;98879.50;5072610;28;20036;-67
2022/02/16 07:25:46;;;;;;;0.65;0.10;;;;;;;25.07;52.57;98879.50;5072145;28;20372;-67
2022/02/16 07:28:12;;;;;;;1.35;0.28;;;;;;;25.07;52.25;98885.84;5072448;28;20060;-66
2022/02/16 07:30:37;;;;;;;0.35;0.30;;;;;;;25.10;52.33;98882.56;5037927;28;20017;-66
2022/02/16 07:33:02;;;;;;;0.40;0.40;;;;;;;25.09;51.81;98874.56;5034408;28;20503;-66
2022/02/16 07:35:28;;;;;;;1.17;0.25;;;;;;;25.11;52.05;98875.13;5052349;28;20027;-66
2022/02/16 07:37:55;;;;;;;1.55;0.40;;;;;;;25.13;51.62;98872.94;5052057;28;20025;-67
2022/02/16 07:40:20;;;;;;;0.43;0.10;;;;;;;25.14;52.13;98869.09;5048289;28;20405;-66
2022/02/16 07:42:46;;;;;;;1.38;0.17;;;;;;;25.15;52.20;98854.25;5072088;28;20021;-66
2022/02/16 07:45:11;;;;;;;0.60;0.30;;;;;;;25.14;52.06;98852.59;5072187;28;20024;-67
2022/02/16 07:47:36;;;;;;;0.65;0.17;;;;;;;25.17;52.20;98852.91;5072153;28;20020;-65
2022/02/16 07:50:03;;;;;;;0.60;0.10;;;;;;;25.16;52.49;98856.75;5060988;28;20068;-66
2022/02/16 07:52:31;;;;;;;1.90;0.20;;;;;;;25.17;52.07;98846.56;5052106;28;20024;-68
2022/02/16 07:54:57;;;;;;;1.10;0.10;;;;;;;25.17;52.39;98841.91;5051836;28;20151;-66
2022/02/16 07:57:23;;;;;;;0.98;0.10;;;;;;;25.17;51.81;98832.81;5052254;28;20476;-66
2022/02/16 07:59:48;;;;;;;1.10;0.20;;;;;;;25.19;51.56;98837.00;5060289;28;20021;-68
2022/02/16 08:02:13;;;;;;;0.52;0.20;;;;;;;25.19;52.26;98836.13;5072131;28;20024;-65
2022/02/16 08:04:39;;;;;;;0.50;0.10;;;;;;;25.20;51.36;98824.06;5071854;28;20036;-66
2022/02/16 08:07:05;;;;;;;1.25;0.30;;;;;;;25.18;52.25;98828.97;5072011;28;20122;-66
2022/02/16 08:09:31;;;;;;;0.20;0.00;;;;;;;25.22;51.96;98826.56;5065707;28;20032;-65
2022/02/16 08:11:57;;;;;;;0.45;0.20;;;;;;;25.25;52.48;98820.53;5051781;28;20399;-68
2022/02/16 08:14:22;;;;;;;0.50;0.10;;;;;;;25.25;51.78;98826.84;5052021;28;20021;-66
2022/02/16 08:16:47;;;;;;;1.17;0.08;;;;;;;25.22;51.57;98824.63;5052265;28;20087;-67
2022/02/16 08:19:13;;;;;;;0.40;0.10;;;;;;;25.24;51.73;98816.94;5072923;28;20371;-65
2022/02/16 08:21:39;;;;;;;0.40;0.10;;;;;;;25.26;51.65;98833.19;5075743;28;20079;-66
2022/02/16 08:24:06;;;;;;;0.80;0.10;;;;;;;25.27;51.57;98819.16;5076016;28;20026;-67
2022/02/16 08:26:31;;;;;;;0.47;0.10;;;;;;;25.25;52.64;98823.28;5075704;28;20029;-66
2022/02/16 08:28:57;;;;;;;0.40;0.25;;;;;;;25.27;51.87;98823.84;5060499;28;20043;-66
2022/02/16 08:31:22;;;;;;;1.70;0.22;;;;;;;25.27;52.37;98818.34;5055682;28;20020;-67
2022/02/16 08:33:48;;;;;;;0.40;0.10;;;;;;;25.26;52.11;98817.50;5055320;28;20032;-66
2022/02/16 08:36:13;;;;;;;0.13;0.03;;;;;;;25.29;52.67;98811.47;5037643;28;20025;-66
2022/02/16 08:38:40;;;;;;;0.32;0.10;;;;;;;25.28;51.71;98809.81;5067100;28;20112;-67
2022/02/16 08:41:06;;;;;;;1.33;0.28;;;;;;;25.29;51.72;98805.97;5075311;28;20024;-66
2022/02/16 08:43:32;;;;;;;0.47;0.15;;;;;;;25.32;51.78;98808.19;5075316;28;20020;-65
2022/02/16 08:46:00;;;;;;;1.25;0.10;;;;;;;25.31;51.67;98809.28;5075476;28;20415;-67
2022/02/16 08:48:27;;;;;;;0.50;0.30;;;;;;;25.33;51.98;98806.25;5065137;28;20029;-65
2022/02/16 08:50:54;;;;;;;0.00;0.00;;;;;;;25.31;52.30;98805.69;5055036;28;20047;-66
2022/02/16 08:53:20;;;;;;;0.25;0.10;;;;;;;25.34;51.98;98807.91;5055129;28;20049;-68
2022/02/16 08:55:45;;;;;;;0.65;0.35;;;;;;;25.33;51.60;98801.59;5054817;28;20079;-66
2022/02/16 08:58:12;;;;;;;0.10;0.10;;;;;;;25.33;52.18;98807.09;5062487;28;20479;-67
2022/02/16 09:00:38;;;;;;;0.45;0.08;;;;;;;25.33;51.25;98804.34;5074932;28;20057;-66
2022/02/16 09:03:04;;;;;;;0.90;0.13;;;;;;;25.33;52.23;98801.59;5075217;28;20020;-66
2022/02/16 09:05:29;;;;;;;0.88;0.10;;;;;;;25.37;52.64;98796.41;5075011;28;20035;-67
2022/02/16 09:07:54;;;;;;;1.20;0.25;;;;;;;25.36;52.61;98809.31;5069702;28;20406;-66
2022/02/16 09:10:20;;;;;;;1.55;0.10;;;;;;;25.36;52.07;98803.84;5054829;28;20025;-66
2022/02/16 09:12:45;;;;;;;1.08;0.52;;;;;;;25.37;52.07;98799.97;5054604;28;20032;-68
2022/02/16 09:15:10;;;;;;;0.20;0.10;;;;;;;25.38;51.93;98800.81;5054778;28;20021;-66
2022/02/16 09:17:36;;;;;;;0.63;0.10;;;;;;;25.39;52.24;98806.03;5056659;28;20249;-66
2022/02/16 09:20:03;;;;;;;0.10;0.10;;;;;;;25.39;51.76;98803.28;5074569;28;20012;-67
2022/02/16 09:22:29;;;;;;;0.85;0.30;;;;;;;25.38;51.76;98798.88;5056710;28;20031;-65
2022/02/16 09:24:54;;;;;;;0.68;0.10;;;;;;;25.38;51.76;98798.88;5074343;28;20028;-66
2022/02/16 09:27:20;;;;;;;0.40;0.20;;;;;;;25.38;51.92;98804.38;5074419;28;20036;-68
2022/02/16 09:29:47;;;;;;;0.95;0.35;;;;;;;25.39;51.91;98800.53;5073167;28;20036;-66
2022/02/16 09:32:12;;;;;;;0.45;0.10;;;;;;;25.41;51.90;98803.03;5064906;28;20032;-67
2022/02/16 09:34:38;;;;;;;1.30;0.10;;;;;;;25.42;52.05;98800.00;5054367;28;20021;-66
2022/02/16 09:37:04;;;;;;;0.63;0.05;;;;;;;25.41;51.67;98792.84;5054253;28;20044;-66
2022/02/16 09:39:30;;;;;;;0.45;0.17;;;;;;;25.41;52.33;98803.84;5071447;28;20065;-67
2022/02/16 09:41:56;;;;;;;0.93;0.10;;;;;;;25.41;51.65;98806.59;5074048;28;20028;-66
2022/02/16 09:44:29;;;;;;;0.10;0.00;;;;;;;25.43;52.02;98801.66;5056377;28;20031;-67
2022/02/16 09:46:55;;;;;;;1.23;0.20;;;;;;;25.42;51.53;98799.19;5073994;28;20060;-66
2022/02/16 09:49:20;;;;;;;0.25;0.10;;;;;;;25.46;51.83;98795.63;5058126;28;20110;-66
2022/02/16 09:51:46;;;;;;;0.73;0.10;;;;;;;25.46;51.45;98798.38;5036206;28;20495;-67
2022/02/16 09:54:12;;;;;;;0.55;0.10;;;;;;;25.48;51.73;98795.34;5053864;28;20484;-66
2022/02/16 09:56:42;;;;;;;0.38;0.10;;;;;;;25.47;51.65;98797.28;5060630;28;20066;-66
2022/02/16 09:59:08;;;;;;;0.52;0.20;;;;;;;25.45;51.83;98796.72;5074013;28;20025;-67
2022/02/16 10:02:02;;;;;;;0.32;0.00;;;;;;;25.47;52.42;98791.78;5073849;28;20025;-66
2022/02/16 10:04:30;;;;;;;1.80;0.22;;;;;;;25.47;51.84;98797.28;5055985;28;20032;-67
2022/02/16 10:06:56;;;;;;;1.15;0.20;;;;;;;25.47;52.29;98797.28;5064407;28;20063;-66
2022/02/16 10:09:34;;;;;;;0.55;0.15;;;;;;;25.46;51.85;98790.13;5053740;28;20021;-66
2022/02/16 10:12:02;;;;;;;0.68;0.20;;;;;;;25.49;52.19;98795.06;5053619;28;20545;-67
2022/02/16 10:14:35;;;;;;;0.40;0.20;;;;;;;25.46;52.01;98787.38;5053642;28;20120;-66
2022/02/16 10:17:15;;;;;;;0.63;0.10;;;;;;;25.48;52.00;98779.66;5062859;28;20191;-68
2022/02/16 10:19:54;;;;;;;0.77;0.20;;;;;;;25.53;52.31;98780.78;5073256;28;20103;-65
2022/02/16 10:22:23;;;;;;;1.55;0.63;;;;;;;25.50;52.52;98771.16;5073552;28;20036;-68
2022/02/16 10:24:49;;;;;;;0.65;0.10;;;;;;;25.53;51.99;98769.78;5062046;28;20035;-66
2022/02/16 10:27:15;;;;;;;0.40;0.20;;;;;;;25.49;51.91;98773.06;5064594;28;20036;-67
2022/02/16 10:29:42;;;;;;;1.17;0.55;;;;;;;25.53;52.29;98761.53;5073019;28;20211;-67
2022/02/16 10:32:09;;;;;;;0.50;0.20;;;;;;;25.49;52.13;98759.31;5073385;28;20095;-66
2022/02/16 10:34:55;;;;;;;1.17;0.10;;;;;;;25.54;52.57;98757.72;5073217;28;20028;-67
2022/02/16 10:37:29;;;;;;;0.85;0.20;;;;;;;25.53;51.99;98761.53;5043115;28;20043;-66
2022/02/16 10:40:16;;;;;;;1.33;0.38;;;;;;;25.54;51.53;98764.03;5052386;28;20051;-66
2022/02/16 10:43:01;;;;;;;0.85;0.10;;;;;;;25.54;52.72;98765.97;5053213;28;20415;-66
2022/02/16 10:45:29;;;;;;;0.77;0.10;;;;;;;25.53;52.07;98761.53;5048646;28;20059;-67
2022/02/16 10:48:02;;;;;;;1.08;0.20;;;;;;;25.52;52.06;98765.38;5047863;28;20028;-66
2022/02/16 10:50:30;;;;;;;0.75;0.10;;;;;;;25.55;52.50;98764.88;5033047;28;20022;-66
2022/02/16 10:52:58;;;;;;;0.40;0.10;;;;;;;25.55;51.78;98760.19;5021823;28;20060;-66
2022/02/16 10:55:50;;;;;;;0.82;0.10;;;;;;;25.56;52.78;98761.00;5052934;28;20103;-66
2022/02/16 10:58:21;;;;;;;1.75;0.10;;;;;;;25.53;51.98;98754.13;5052878;28;20536;-66
2022/02/16 11:00:49;;;;;;;1.38;0.43;;;;;;;25.58;51.96;98758.81;5072430;28;20024;-66
2022/02/16 11:03:20;;;;;;;1.25;0.28;;;;;;;25.59;52.56;98749.47;5072659;28;20414;-67
2022/02/16 11:05:47;;;;;;;1.67;0.10;;;;;;;25.56;52.21;98748.09;5060047;28;20087;-66
2022/02/16 11:08:16;;;;;;;0.47;0.15;;;;;;;25.56;52.07;98744.50;5070926;28;20025;-67
2022/02/16 11:10:44;;;;;;;0.80;0.15;;;;;;;25.58;52.95;98742.31;5038147;28;20477;-66
2022/02/16 11:13:12;;;;;;;1.45;0.30;;;;;;;25.56;52.23;98739.84;5038666;28;20056;-66
2022/02/16 11:15:39;;;;;;;1.08;0.25;;;;;;;25.56;52.19;98739.00;5033573;28;20032;-67
2022/02/16 11:18:44;;;;;;;0.38;0.10;;;;;;;25.61;52.55;98730.75;5050310;28;20111;-66
2022/02/16 11:21:14;;;;;;;;;;;;;;;25.60;51.74;98729.09;5042860;28;20040;-67
2022/02/16 11:23:51;;;;;;;0.95;0.20;;;;;;;25.60;52.19;98729.09;5033555;28;19909;-65
2022/02/16 11:26:38;;;;;;;1.20;0.30;;;;;;;25.58;52.05;98732.13;5023869;28;20029;-67
2022/02/16 11:29:26;;;;;;;1.45;0.45;;;;;;;25.60;52.15;98735.44;5054439;28;20593;-65
2022/02/16 11:32:15;;;;;;;0.98;0.13;;;;;;;25.61;52.42;98719.75;5072127;28;20032;-68